createdAt,value
2022-08-19T00:00:34.228Z,22.24
2022-08-19T00:01:34.224Z,22.23
2022-08-19T00:02:36.982Z,22.24
2022-08-19T00:03:34.078Z,22.21
2022-08-19T00:04:34.145Z,22.2
2022-08-19T00:05:34.306Z,22.22
2022-08-19T00:06:34.030Z,22.22
2022-08-19T00:07:34.517Z,22.23
2022-08-19T00:08:33.858Z,22.22
2022-08-19T00:09:33.944Z,22.21
2022-08-19T00:10:34.229Z,22.23
2022-08-19T00:11:33.937Z,22.25
2022-08-19T00:12:33.990Z,22.24
2022-08-19T00:13:36.925Z,22.22
2022-08-19T00:14:33.962Z,22.21
2022-08-19T00:15:34.298Z,22.21
2022-08-19T00:16:34.229Z,22.22
2022-08-19T00:17:34.069Z,22.23
2022-08-19T00:18:33.954Z,22.23
2022-08-19T00:19:33.969Z,22.24
2022-08-19T00:20:34.301Z,22.22
2022-08-19T00:21:34.002Z,22.24
2022-08-19T00:22:33.974Z,22.26
2022-08-19T00:23:34.046Z,22.31
2022-08-19T00:24:36.966Z,22.3
2022-08-19T00:25:34.233Z,22.3
2022-08-19T00:26:33.937Z,22.29
2022-08-19T00:27:33.855Z,22.26
2022-08-19T00:28:33.862Z,22.23
2022-08-19T00:29:33.956Z,22.21
2022-08-19T00:30:35.098Z,22.18
2022-08-19T00:31:34.222Z,22.16
2022-08-19T00:32:33.991Z,22.17
2022-08-19T00:33:33.959Z,22.14
2022-08-19T00:34:33.980Z,22.16
2022-08-19T00:35:33.937Z,22.19
2022-08-19T00:36:34.296Z,22.18
2022-08-19T00:37:34.008Z,22.16
2022-08-19T00:38:37.156Z,22.15
2022-08-19T00:39:33.958Z,22.16
2022-08-19T00:40:36.977Z,22.15
2022-08-19T00:41:34.215Z,22.14
2022-08-19T00:42:34.028Z,22.13
2022-08-19T00:43:34.290Z,22.07
2022-08-19T00:44:33.946Z,22.05
2022-08-19T00:45:36.505Z,22.08
2022-08-19T00:46:33.946Z,22.11
2022-08-19T00:47:33.995Z,22.12
2022-08-19T00:48:34.054Z,22.13
2022-08-19T00:49:33.973Z,22.14
2022-08-19T00:50:34.287Z,22.15
2022-08-19T00:51:36.980Z,22.15
2022-08-19T00:52:33.942Z,22.11
2022-08-19T00:53:34.024Z,22.13
2022-08-19T00:54:33.880Z,22.13
2022-08-19T00:55:34.287Z,22.19
2022-08-19T00:56:34.066Z,22.15
2022-08-19T00:57:34.069Z,22.06
2022-08-19T00:58:33.905Z,22.04
2022-08-19T00:59:56.244Z,22.04
2022-08-19T01:00:34.219Z,22.05
2022-08-19T01:01:34.121Z,22.06
2022-08-19T01:02:33.963Z,22.07
2022-08-19T01:03:58.121Z,22.06
2022-08-19T01:04:33.969Z,22.05
2022-08-19T01:05:34.297Z,22.05
2022-08-19T01:06:33.933Z,22.08
2022-08-19T01:07:38.134Z,22.06
2022-08-19T01:08:34.006Z,22.05
2022-08-19T01:09:33.858Z,22.05
2022-08-19T01:10:36.842Z,22.04
2022-08-19T01:11:34.293Z,22.11
2022-08-19T01:12:34.095Z,22.09
2022-08-19T01:13:49.060Z,22.11
2022-08-19T01:14:33.954Z,22.1
2022-08-19T01:15:34.223Z,22.1
2022-08-19T01:16:34.022Z,22.11
2022-08-19T01:17:33.948Z,22.08
2022-08-19T01:18:36.970Z,22.02
2022-08-19T01:19:44.169Z,22.04
2022-08-19T01:20:34.210Z,22.02
2022-08-19T01:21:34.055Z,22.04
2022-08-19T01:22:34.177Z,22.03
2022-08-19T01:23:33.985Z,22.01
2022-08-19T01:24:33.983Z,21.99
2022-08-19T01:25:34.363Z,22.02
2022-08-19T01:26:34.070Z,21.99
2022-08-19T01:27:43.243Z,22.01
2022-08-19T01:28:40.244Z,22
2022-08-19T01:29:36.966Z,21.95
2022-08-19T01:30:34.309Z,21.96
2022-08-19T01:31:34.087Z,21.97
2022-08-19T01:32:34.281Z,21.94
2022-08-19T01:33:33.985Z,21.95
2022-08-19T01:34:33.972Z,21.96
2022-08-19T01:35:34.224Z,21.94
2022-08-19T01:36:33.960Z,21.95
2022-08-19T01:37:33.993Z,21.91
2022-08-19T01:38:34.073Z,21.91
2022-08-19T01:39:34.035Z,21.9
2022-08-19T01:40:39.899Z,21.91
2022-08-19T01:41:34.073Z,21.88
2022-08-19T01:42:34.016Z,21.87
2022-08-19T01:43:33.885Z,21.86
2022-08-19T01:44:33.859Z,21.85
2022-08-19T01:45:34.293Z,21.84
2022-08-19T01:46:33.962Z,21.83
2022-08-19T01:47:33.962Z,21.83
2022-08-19T01:48:34.049Z,21.83
2022-08-19T01:49:34.003Z,21.83
2022-08-19T01:50:34.294Z,21.82
2022-08-19T01:51:40.051Z,21.81
2022-08-19T01:52:34.051Z,21.85
2022-08-19T01:53:33.973Z,21.84
2022-08-19T01:54:34.025Z,21.82
2022-08-19T01:55:34.294Z,21.77
2022-08-19T01:56:34.058Z,21.76
2022-08-19T01:57:33.976Z,21.73
2022-08-19T01:58:34.213Z,21.71
2022-08-19T01:59:33.965Z,21.69
2022-08-19T02:00:34.219Z,21.67
2022-08-19T02:01:34.138Z,21.67
2022-08-19T02:02:37.008Z,21.65
2022-08-19T02:03:34.036Z,21.64
2022-08-19T02:04:33.943Z,21.61
2022-08-19T02:05:34.216Z,21.61
2022-08-19T02:06:34.015Z,21.61
2022-08-19T02:07:33.966Z,21.6
2022-08-19T02:08:33.980Z,21.62
2022-08-19T02:09:33.945Z,21.62
2022-08-19T02:10:34.326Z,21.63
2022-08-19T02:11:34.018Z,21.62
2022-08-19T02:12:33.954Z,21.62
2022-08-19T02:13:39.924Z,21.61
2022-08-19T02:14:34.023Z,21.61
2022-08-19T02:15:34.320Z,21.59
2022-08-19T02:16:34.041Z,21.58
2022-08-19T02:17:33.868Z,21.56
2022-08-19T02:18:33.930Z,21.56
2022-08-19T02:19:33.951Z,21.56
2022-08-19T02:20:34.287Z,21.56
2022-08-19T02:21:34.045Z,21.57
2022-08-19T02:22:34.002Z,21.57
2022-08-19T02:23:34.037Z,21.59
2022-08-19T02:24:36.968Z,21.6
2022-08-19T02:25:34.221Z,21.62
2022-08-19T02:26:34.072Z,21.65
2022-08-19T02:27:33.962Z,21.66
2022-08-19T02:28:34.288Z,21.64
2022-08-19T02:29:34.026Z,21.65
2022-08-19T02:30:34.219Z,21.67
2022-08-19T02:31:33.907Z,21.68
2022-08-19T02:32:33.857Z,21.7
2022-08-19T02:33:33.958Z,21.71
2022-08-19T02:34:34.044Z,21.7
2022-08-19T02:35:39.894Z,21.69
2022-08-19T02:36:34.055Z,21.66
2022-08-19T02:37:35.089Z,21.65
2022-08-19T02:38:33.968Z,21.67
2022-08-19T02:39:34.160Z,21.68
2022-08-19T02:40:34.477Z,21.69
2022-08-19T02:41:33.979Z,21.68
2022-08-19T02:42:33.993Z,21.67
2022-08-19T02:43:34.598Z,21.69
2022-08-19T02:44:33.981Z,21.7
2022-08-19T02:45:34.311Z,21.71
2022-08-19T02:46:36.971Z,21.71
2022-08-19T02:47:34.068Z,21.72
2022-08-19T02:48:34.130Z,21.71
2022-08-19T02:49:34.742Z,21.68
2022-08-19T02:50:34.291Z,21.68
2022-08-19T02:51:34.073Z,21.66
2022-08-19T02:52:33.873Z,21.65
2022-08-19T02:53:33.966Z,21.65
2022-08-19T02:54:33.937Z,21.64
2022-08-19T02:55:46.304Z,21.61
2022-08-19T02:56:34.048Z,21.58
2022-08-19T02:57:36.950Z,21.58
2022-08-19T02:58:34.330Z,21.54
2022-08-19T02:59:34.059Z,21.53
2022-08-19T03:00:34.227Z,21.52
2022-08-19T03:01:34.206Z,21.51
2022-08-19T03:02:34.057Z,21.5
2022-08-19T03:03:33.961Z,21.49
2022-08-19T03:04:33.960Z,21.48
2022-08-19T03:05:48.229Z,21.5
2022-08-19T03:06:33.965Z,21.52
2022-08-19T03:07:33.958Z,21.53
2022-08-19T03:08:36.972Z,21.53
2022-08-19T03:09:34.054Z,21.53
2022-08-19T03:10:34.294Z,21.52
2022-08-19T03:11:33.973Z,21.52
2022-08-19T03:12:33.992Z,21.48
2022-08-19T03:13:34.218Z,21.45
2022-08-19T03:14:33.855Z,21.43
2022-08-19T03:15:34.336Z,21.4
2022-08-19T03:16:34.047Z,21.4
2022-08-19T03:17:33.949Z,21.38
2022-08-19T03:18:33.956Z,21.36
2022-08-19T03:19:37.005Z,21.35
2022-08-19T03:20:34.026Z,21.36
2022-08-19T03:21:34.290Z,21.34
2022-08-19T03:22:34.060Z,21.31
2022-08-19T03:23:34.050Z,21.32
2022-08-19T03:24:33.883Z,21.31
2022-08-19T03:25:33.951Z,21.3
2022-08-19T03:26:34.293Z,21.29
2022-08-19T03:27:34.787Z,21.3
2022-08-19T03:28:34.219Z,21.3
2022-08-19T03:29:33.861Z,21.32
2022-08-19T03:30:33.945Z,21.36
2022-08-19T03:31:43.633Z,21.4
2022-08-19T03:32:33.973Z,21.4
2022-08-19T03:33:33.955Z,21.42
2022-08-19T03:34:33.957Z,21.41
2022-08-19T03:35:36.984Z,21.4
2022-08-19T03:36:34.217Z,21.41
2022-08-19T03:37:34.028Z,21.4
2022-08-19T03:38:33.997Z,21.41
2022-08-19T03:39:34.009Z,21.39
2022-08-19T03:40:33.962Z,21.42
2022-08-19T03:41:44.212Z,21.43
2022-08-19T03:42:48.659Z,21.44
2022-08-19T03:43:34.286Z,21.44
2022-08-19T03:44:34.034Z,21.45
2022-08-19T03:45:34.026Z,21.48
2022-08-19T03:46:39.892Z,21.51
2022-08-19T03:47:33.974Z,21.53
2022-08-19T03:48:34.040Z,21.51
2022-08-19T03:49:33.857Z,21.5
2022-08-19T03:50:33.835Z,21.5
2022-08-19T03:51:34.291Z,21.51
2022-08-19T03:52:34.025Z,21.5
2022-08-19T03:53:33.991Z,21.48
2022-08-19T03:54:33.869Z,21.47
2022-08-19T03:55:33.996Z,21.46
2022-08-19T03:56:34.207Z,21.44
2022-08-19T03:57:33.988Z,21.41
2022-08-19T03:58:34.287Z,21.39
2022-08-19T03:59:34.029Z,21.38
2022-08-19T04:00:34.000Z,21.37
2022-08-19T04:01:35.477Z,21.33
2022-08-19T04:02:37.008Z,21.32
2022-08-19T04:03:34.043Z,21.3
2022-08-19T04:04:33.984Z,21.29
2022-08-19T04:05:34.004Z,21.28
2022-08-19T04:06:34.310Z,21.28
2022-08-19T04:07:34.008Z,21.25
2022-08-19T04:08:36.985Z,21.25
2022-08-19T04:09:34.048Z,21.25
2022-08-19T04:10:33.936Z,21.23
2022-08-19T04:11:43.411Z,21.22
2022-08-19T04:12:34.041Z,21.22
2022-08-19T04:13:34.217Z,21.2
2022-08-19T04:14:33.961Z,21.2
2022-08-19T04:15:33.994Z,21.18
2022-08-19T04:16:35.270Z,21.17
2022-08-19T04:17:34.021Z,21.14
2022-08-19T04:18:36.394Z,21.12
2022-08-19T04:19:36.889Z,21.12
2022-08-19T04:20:33.970Z,21.11
2022-08-19T04:21:33.974Z,21.1
2022-08-19T04:22:34.069Z,21.11
2022-08-19T04:23:33.940Z,21.12
2022-08-19T04:24:34.005Z,21.13
2022-08-19T04:25:33.963Z,21.17
2022-08-19T04:26:34.040Z,21.19
2022-08-19T04:27:33.984Z,21.21
2022-08-19T04:28:34.219Z,21.23
2022-08-19T04:29:34.004Z,21.22
2022-08-19T04:30:36.980Z,21.2
2022-08-19T04:31:34.209Z,21.18
2022-08-19T04:32:33.964Z,21.17
2022-08-19T04:33:33.847Z,21.15
2022-08-19T04:34:34.008Z,21.11
2022-08-19T04:35:33.837Z,21.12
2022-08-19T04:36:34.219Z,21.12
2022-08-19T04:37:34.852Z,21.11
2022-08-19T04:38:33.978Z,21.12
2022-08-19T04:39:33.982Z,21.11
2022-08-19T04:40:34.026Z,21.12
2022-08-19T04:41:34.215Z,21.11
2022-08-19T04:42:33.980Z,21.12
2022-08-19T04:43:34.292Z,21.14
2022-08-19T04:44:35.256Z,21.18
2022-08-19T04:45:39.519Z,21.22
2022-08-19T04:46:51.218Z,21.25
2022-08-19T04:47:49.381Z,21.3
2022-08-19T04:48:35.330Z,21.33
2022-08-19T04:49:34.073Z,21.36
2022-08-19T04:50:33.953Z,21.39
2022-08-19T04:51:34.293Z,21.43
2022-08-19T04:52:33.989Z,21.46
2022-08-19T04:53:37.680Z,21.48
2022-08-19T04:54:38.782Z,21.51
2022-08-19T04:55:38.225Z,21.48
2022-08-19T04:56:34.209Z,21.48
2022-08-19T04:57:33.966Z,21.49
2022-08-19T04:58:34.282Z,21.48
2022-08-19T04:59:34.079Z,21.49
2022-08-19T05:00:33.937Z,21.48
2022-08-19T05:01:34.287Z,21.48
2022-08-19T05:02:36.964Z,21.47
2022-08-19T05:03:34.020Z,21.5
2022-08-19T05:04:33.999Z,21.52
2022-08-19T05:05:44.858Z,21.56
2022-08-19T05:06:34.296Z,21.58
2022-08-19T05:07:34.060Z,21.6
2022-08-19T05:08:33.862Z,21.6
2022-08-19T05:09:56.562Z,21.65
2022-08-19T05:10:33.929Z,21.7
2022-08-19T05:11:34.219Z,21.73
2022-08-19T05:12:34.025Z,21.82
2022-08-19T05:13:34.218Z,21.82
2022-08-19T05:14:33.940Z,21.86
2022-08-19T05:15:33.964Z,21.85
2022-08-19T05:16:34.227Z,21.84
2022-08-19T05:17:38.265Z,21.87
2022-08-19T05:18:36.921Z,21.91
2022-08-19T05:19:33.950Z,21.89
2022-08-19T05:20:33.976Z,21.92
2022-08-19T05:21:34.052Z,21.98
2022-08-19T05:22:34.024Z,22.01
2022-08-19T05:23:33.961Z,22.09
2022-08-19T05:24:33.967Z,22.16
2022-08-19T05:25:33.948Z,22.25
2022-08-19T05:26:34.225Z,22.34
2022-08-19T05:27:33.950Z,22.27
2022-08-19T05:28:34.281Z,22.21
2022-08-19T05:29:36.935Z,22.15
2022-08-19T05:30:46.851Z,22.16
2022-08-19T05:31:34.282Z,22.2
2022-08-19T05:32:34.065Z,22.21
2022-08-19T05:33:34.018Z,22.26
2022-08-19T05:34:34.006Z,22.35
2022-08-19T05:35:34.635Z,22.45
2022-08-19T05:36:34.290Z,22.5
2022-08-19T05:37:34.028Z,22.48
2022-08-19T05:38:33.959Z,22.5
2022-08-19T05:39:34.061Z,22.58
2022-08-19T05:40:36.960Z,22.58
2022-08-19T05:41:34.213Z,22.5
2022-08-19T05:42:34.018Z,22.51
2022-08-19T05:43:34.295Z,22.6
2022-08-19T05:44:34.036Z,22.71
2022-08-19T05:45:33.902Z,22.71
2022-08-19T05:46:34.212Z,22.64
2022-08-19T05:47:33.955Z,22.53
2022-08-19T05:48:34.043Z,22.53
2022-08-19T05:49:33.968Z,22.58
2022-08-19T05:50:34.228Z,22.6
2022-08-19T05:51:36.953Z,22.63
2022-08-19T05:52:34.049Z,22.65
2022-08-19T05:53:33.935Z,22.67
2022-08-19T05:54:33.994Z,22.68
2022-08-19T05:55:34.214Z,22.79
2022-08-19T05:56:34.072Z,22.96
2022-08-19T05:57:33.965Z,23.25
2022-08-19T05:58:34.329Z,23.52
2022-08-19T05:59:33.947Z,23.83
2022-08-19T06:00:34.294Z,24.18
2022-08-19T06:01:34.209Z,24.39
2022-08-19T06:02:36.940Z,24.78
2022-08-19T06:03:33.949Z,25.16
2022-08-19T06:04:33.966Z,25.37
2022-08-19T06:05:34.284Z,25.23
2022-08-19T06:06:34.019Z,25.22
2022-08-19T06:08:42.026Z,25.84
2022-08-19T06:09:43.695Z,25.99
2022-08-19T06:10:42.408Z,26.21
2022-08-19T06:11:42.047Z,26.38
2022-08-19T06:12:42.057Z,26.49
2022-08-19T06:13:48.257Z,26.72
2022-08-19T06:14:42.117Z,26.76
2022-08-19T06:15:42.402Z,26.61
2022-08-19T06:16:42.064Z,26.93
2022-08-19T06:17:41.973Z,27.43
2022-08-19T06:18:42.082Z,27.95
2022-08-19T06:19:41.963Z,28.39
2022-08-19T06:20:55.479Z,28.57
2022-08-19T06:21:42.166Z,28.21
2022-08-19T06:22:41.948Z,28.04
2022-08-19T06:23:42.043Z,27.92
2022-08-19T06:24:45.115Z,28.14
2022-08-19T06:25:42.387Z,28.26
2022-08-19T06:26:42.180Z,28.31
2022-08-19T06:27:53.038Z,28.26
2022-08-19T06:28:42.475Z,28.39
2022-08-19T06:29:42.158Z,28.39
2022-08-19T06:30:42.064Z,28.7
2022-08-19T06:31:42.395Z,28.8
2022-08-19T06:32:42.984Z,28.8
2022-08-19T06:33:41.967Z,28.72
2022-08-19T06:34:42.061Z,28.64
2022-08-19T06:36:52.196Z,28.43
2022-08-19T06:37:51.778Z,28.24
2022-08-19T06:38:51.899Z,27.98
2022-08-19T06:39:51.957Z,27.99
2022-08-19T06:40:51.766Z,28.22
2022-08-19T06:41:58.953Z,28.49
2022-08-19T06:42:54.440Z,28.45
2022-08-19T06:43:52.544Z,28.27
2022-08-19T06:44:53.591Z,27.32
2022-08-19T06:45:51.858Z,26.62
2022-08-19T06:46:54.593Z,26.15
2022-08-19T06:47:51.895Z,25.91
2022-08-19T06:48:51.891Z,25.59
2022-08-19T06:49:51.840Z,25.4
2022-08-19T06:50:51.912Z,25.42
2022-08-19T06:51:51.976Z,25.35
2022-08-19T06:52:54.983Z,25.28
2022-08-19T06:54:59.705Z,25.44
2022-08-19T06:55:58.557Z,25.49
2022-08-19T06:56:58.889Z,25.59
2022-08-19T06:57:58.561Z,25.29
2022-08-19T06:58:58.902Z,25.26
2022-08-19T07:00:01.602Z,25.71
2022-08-19T07:00:58.550Z,26.13
2022-08-19T07:01:58.894Z,27.02
2022-08-19T07:03:00.215Z,27.46
2022-08-19T07:03:58.545Z,27.57
2022-08-19T07:04:58.582Z,27.92
2022-08-19T07:06:01.447Z,28.11
2022-08-19T07:06:58.813Z,28.18
2022-08-19T07:08:02.891Z,28.08
2022-08-19T07:08:58.466Z,28.1
2022-08-19T07:10:01.034Z,28.12
2022-08-19T07:10:58.636Z,28.65
2022-08-19T07:11:58.815Z,28.93
2022-08-19T07:12:58.456Z,29.51
2022-08-19T07:13:58.888Z,30.17
2022-08-19T07:14:58.703Z,30.08
2022-08-19T07:15:58.524Z,30.03
2022-08-19T07:17:01.603Z,30.63
2022-08-19T07:17:58.539Z,30.84
2022-08-19T07:18:58.546Z,30.86
2022-08-19T07:19:58.610Z,30.82
2022-08-19T07:20:58.593Z,30.61
2022-08-19T07:21:58.917Z,30.45
2022-08-19T07:22:58.562Z,30.68
2022-08-19T07:23:58.483Z,30.6
2022-08-19T07:24:58.658Z,29.96
2022-08-19T07:25:58.726Z,29.23
2022-08-19T07:26:58.889Z,28.64
2022-08-19T07:28:01.811Z,28.28
2022-08-19T07:28:58.641Z,28.44
2022-08-19T07:29:59.770Z,28.77
2022-08-19T07:30:58.631Z,28.83
2022-08-19T07:31:58.880Z,28.76
2022-08-19T07:32:58.662Z,28.6
2022-08-19T07:33:58.590Z,29.36
2022-08-19T07:34:58.589Z,29.69
2022-08-19T07:35:58.671Z,30.34
2022-08-19T07:36:58.818Z,30.93
2022-08-19T07:37:58.664Z,31.14
2022-08-19T07:39:01.492Z,31.13
2022-08-19T07:39:58.706Z,31.42
2022-08-19T07:40:58.620Z,31.46
2022-08-19T07:41:58.882Z,31.72
2022-08-19T07:42:58.607Z,31.77
2022-08-19T07:43:58.884Z,31.38
2022-08-19T07:44:58.442Z,30.38
2022-08-19T07:45:58.677Z,29.52
2022-08-19T07:46:58.825Z,29.12
2022-08-19T07:47:58.945Z,28.1
2022-08-19T07:48:58.661Z,27.8
2022-08-19T07:50:01.639Z,27.85
2022-08-19T07:50:58.534Z,27.93
2022-08-19T07:51:58.884Z,27.9
2022-08-19T07:52:58.617Z,27.66
2022-08-19T07:53:58.589Z,27.61
2022-08-19T07:54:58.619Z,27.62
2022-08-19T07:55:58.467Z,27.6
2022-08-19T07:56:58.887Z,27.7
2022-08-19T07:57:58.639Z,27.74
2022-08-19T07:58:58.897Z,27.6
2022-08-19T07:59:58.656Z,27.55
2022-08-19T08:01:01.497Z,27.32
2022-08-19T08:01:58.965Z,27.14
2022-08-19T08:02:58.660Z,26.88
2022-08-19T08:03:58.482Z,26.82
2022-08-19T08:04:58.590Z,26.64
2022-08-19T08:05:58.609Z,26.69
2022-08-19T08:06:58.838Z,26.85
2022-08-19T08:07:58.583Z,27.01
2022-08-19T08:08:58.670Z,27.26
2022-08-19T08:09:58.614Z,27.54
2022-08-19T08:10:58.583Z,27.64
2022-08-19T08:12:17.963Z,27.99
2022-08-19T08:13:10.161Z,28.12
2022-08-19T08:14:01.031Z,28.16
2022-08-19T08:14:58.519Z,27.92
2022-08-19T08:15:58.544Z,27.67
2022-08-19T08:16:59.213Z,27.48
2022-08-19T08:17:58.459Z,27.44
2022-08-19T08:18:58.459Z,27.53
2022-08-19T08:19:58.659Z,27.65
2022-08-19T08:20:58.608Z,27.71
2022-08-19T08:21:58.589Z,27.47
2022-08-19T08:22:58.429Z,27.27
2022-08-19T08:25:05.364Z,27.56
2022-08-19T08:26:05.410Z,27.65
2022-08-19T08:27:11.447Z,27.77
2022-08-19T08:28:05.474Z,27.71
2022-08-19T08:29:12.489Z,27.49
2022-08-19T08:30:08.381Z,27.4
2022-08-19T08:31:09.642Z,27.52
2022-08-19T08:32:14.836Z,27.59
2022-08-19T08:33:05.517Z,27.39
2022-08-19T08:34:05.453Z,27.3
2022-08-19T08:35:05.524Z,27.43
2022-08-19T08:36:05.395Z,27.67
2022-08-19T08:37:05.756Z,27.83
2022-08-19T08:38:05.486Z,28.2
2022-08-19T08:39:05.421Z,28.36
2022-08-19T08:40:06.630Z,28.43
2022-08-19T08:41:11.396Z,27.73
2022-08-19T08:42:10.472Z,27.45
2022-08-19T08:44:17.221Z,27.75
2022-08-19T08:45:12.118Z,27.83
2022-08-19T08:46:12.513Z,28.02
2022-08-19T08:47:12.126Z,28.22
2022-08-19T08:48:21.893Z,28.28
2022-08-19T08:49:15.128Z,28.26
2022-08-19T08:50:12.097Z,28.16
2022-08-19T08:51:12.486Z,28.12
2022-08-19T08:52:12.032Z,28.08
2022-08-19T08:53:12.066Z,27.96
2022-08-19T08:54:12.076Z,27.55
2022-08-19T08:55:12.085Z,27.41
2022-08-19T08:56:12.425Z,27.25
2022-08-19T08:57:12.137Z,27.35
2022-08-19T08:58:12.081Z,27.68
2022-08-19T08:59:12.162Z,28.08
2022-08-19T09:00:15.546Z,28.09
2022-08-19T09:01:12.374Z,27.9
2022-08-19T09:02:12.184Z,28.03
2022-08-19T09:03:12.154Z,28.15
2022-08-19T09:04:12.095Z,28.38
2022-08-19T09:05:16.873Z,28.38
2022-08-19T09:06:12.368Z,28.7
2022-08-19T09:07:18.653Z,28.97
2022-08-19T09:08:12.183Z,29.12
2022-08-19T09:09:12.489Z,29.11
2022-08-19T09:10:12.072Z,29.04
2022-08-19T09:11:42.374Z,28.88
2022-08-19T09:12:12.078Z,28.78
2022-08-19T09:13:12.101Z,28.71
2022-08-19T09:14:29.247Z,28.82
2022-08-19T09:15:12.157Z,28.72
2022-08-19T09:16:12.417Z,28.52
2022-08-19T09:17:12.069Z,28.53
2022-08-19T09:18:15.323Z,28.52
2022-08-19T09:19:12.150Z,28.37
2022-08-19T09:20:11.993Z,28.52
2022-08-19T09:21:12.505Z,28.92
2022-08-19T09:22:15.054Z,29.15
2022-08-19T09:23:12.153Z,29.07
2022-08-19T09:24:12.091Z,29.15
2022-08-19T09:25:12.047Z,29.53
2022-08-19T09:26:12.421Z,29.86
2022-08-19T09:27:18.714Z,30.11
2022-08-19T09:28:22.132Z,30.43
2022-08-19T09:29:12.086Z,30.67
2022-08-19T09:30:12.127Z,30.83
2022-08-19T09:31:12.419Z,31.07
2022-08-19T09:32:26.577Z,31.16
2022-08-19T09:33:15.102Z,30.88
2022-08-19T09:34:21.231Z,30.61
2022-08-19T09:35:12.182Z,29.87
2022-08-19T09:36:12.347Z,29.34
2022-08-19T09:37:12.162Z,29.06
2022-08-19T09:38:14.934Z,29.15
2022-08-19T09:39:16.356Z,29.1
2022-08-19T09:40:12.487Z,29.19
2022-08-19T09:41:12.171Z,29.56
2022-08-19T09:42:16.623Z,30.02
2022-08-19T09:43:13.391Z,30.46
2022-08-19T09:44:15.076Z,30.79
2022-08-19T09:45:12.350Z,30.98
2022-08-19T09:46:15.692Z,30.92
2022-08-19T09:47:12.153Z,30.76
2022-08-19T09:48:11.970Z,30.73
2022-08-19T09:49:12.105Z,30.31
2022-08-19T09:50:16.553Z,29.85
2022-08-19T09:51:12.171Z,29.7
2022-08-19T09:52:13.650Z,29.65
2022-08-19T09:53:12.055Z,29.74
2022-08-19T09:54:12.097Z,29.74
2022-08-19T09:55:12.342Z,29.78
2022-08-19T09:56:11.938Z,29.66
2022-08-19T09:57:11.974Z,29.3
2022-08-19T09:58:12.008Z,28.86
2022-08-19T09:59:12.131Z,28.79
2022-08-19T10:00:11.995Z,28.69
2022-08-19T10:01:18.071Z,28.43
2022-08-19T10:02:12.168Z,28.58
2022-08-19T10:03:12.148Z,28.8
2022-08-19T10:04:19.845Z,29.12
2022-08-19T10:05:12.413Z,29.33
2022-08-19T10:06:15.112Z,29.32
2022-08-19T10:07:12.087Z,29.25
2022-08-19T10:08:13.004Z,29.16
2022-08-19T10:09:11.980Z,29.09
2022-08-19T10:10:12.110Z,29.35
2022-08-19T10:11:27.416Z,29.44
2022-08-19T10:12:15.013Z,29.71
2022-08-19T10:13:12.137Z,29.97
2022-08-19T10:14:12.117Z,30.24
2022-08-19T10:15:33.370Z,30.42
2022-08-19T10:16:12.345Z,30.52
2022-08-19T10:17:17.578Z,30.68
2022-08-19T10:18:11.963Z,30.59
2022-08-19T10:19:12.114Z,30.48
2022-08-19T10:20:12.028Z,30.13
2022-08-19T10:21:12.004Z,29.95
2022-08-19T10:22:12.212Z,30
2022-08-19T10:23:15.084Z,29.96
2022-08-19T10:24:12.263Z,29.8
2022-08-19T10:25:12.377Z,29.87
2022-08-19T10:26:12.153Z,30.06
2022-08-19T10:27:12.077Z,30.15
2022-08-19T10:28:11.972Z,29.94
2022-08-19T10:29:12.063Z,29.56
2022-08-19T10:30:12.435Z,29.15
2022-08-19T10:31:12.356Z,28.54
2022-08-19T10:32:12.151Z,28.19
2022-08-19T10:33:12.006Z,28.3
2022-08-19T10:34:27.016Z,28.55
2022-08-19T10:35:12.402Z,28.88
2022-08-19T10:36:12.181Z,29.2
2022-08-19T10:37:12.148Z,29.42
2022-08-19T10:38:12.102Z,29.46
2022-08-19T10:39:12.175Z,29.52
2022-08-19T10:40:12.487Z,29.44
2022-08-19T10:41:12.003Z,29.24
2022-08-19T10:42:12.177Z,29.12
2022-08-19T10:43:12.188Z,29.43
2022-08-19T10:44:12.198Z,29.35
2022-08-19T10:45:18.023Z,29.15
2022-08-19T10:46:14.238Z,28.96
2022-08-19T10:47:17.529Z,28.99
2022-08-19T10:48:12.261Z,29.11
2022-08-19T10:49:12.155Z,29.11
2022-08-19T10:50:12.559Z,29.2
2022-08-19T10:51:12.097Z,29.45
2022-08-19T10:52:12.104Z,29.88
2022-08-19T10:53:12.214Z,30.09
2022-08-19T10:54:12.606Z,29.85
2022-08-19T10:55:12.433Z,29.57
2022-08-19T10:56:14.958Z,29.71
2022-08-19T10:57:12.061Z,30.02
2022-08-19T10:58:11.966Z,30.22
2022-08-19T10:59:11.982Z,30.08
2022-08-19T11:00:12.554Z,30.34
2022-08-19T11:01:12.542Z,30.24
2022-08-19T11:02:12.044Z,30.42
2022-08-19T11:03:12.136Z,30.71
2022-08-19T11:04:12.062Z,30.94
2022-08-19T11:05:13.610Z,31.21
2022-08-19T11:06:12.178Z,31.42
2022-08-19T11:07:12.113Z,31.07
2022-08-19T11:08:22.926Z,31.24
2022-08-19T11:09:11.992Z,31.43
2022-08-19T11:10:13.241Z,31.01
2022-08-19T11:11:12.155Z,30.85
2022-08-19T11:12:15.065Z,30.92
2022-08-19T11:13:12.172Z,31.05
2022-08-19T11:14:12.142Z,31.26
2022-08-19T11:15:12.462Z,31.25
2022-08-19T11:16:12.377Z,31.24
2022-08-19T11:17:12.138Z,31.06
2022-08-19T11:18:13.497Z,30.57
2022-08-19T11:19:12.071Z,29.79
2022-08-19T11:20:12.448Z,29.14
2022-08-19T11:21:12.184Z,28.91
2022-08-19T11:22:12.128Z,28.57
2022-08-19T11:23:14.966Z,28.57
2022-08-19T11:24:12.185Z,28.46
2022-08-19T11:25:12.380Z,28.2
2022-08-19T11:26:12.132Z,28.15
2022-08-19T11:27:12.058Z,28.15
2022-08-19T11:28:11.968Z,28.26
2022-08-19T11:29:15.109Z,28.52
2022-08-19T11:30:13.274Z,28.76
2022-08-19T11:31:12.407Z,29.02
2022-08-19T11:32:12.098Z,29.37
2022-08-19T11:33:12.129Z,29.81
2022-08-19T11:34:11.970Z,30.14
2022-08-19T11:35:12.384Z,29.99
2022-08-19T11:36:12.057Z,29.86
2022-08-19T11:37:11.986Z,30.12
2022-08-19T11:38:12.071Z,30.53
2022-08-19T11:39:11.964Z,30.52
2022-08-19T11:40:18.087Z,30.44
2022-08-19T11:41:12.063Z,30.77
2022-08-19T11:42:12.101Z,31.27
2022-08-19T11:43:12.170Z,31.56
2022-08-19T11:44:12.111Z,31.7
2022-08-19T11:45:12.378Z,31.46
2022-08-19T11:46:12.379Z,31.04
2022-08-19T11:47:12.083Z,30.99
2022-08-19T11:48:12.067Z,31.22
2022-08-19T11:49:14.205Z,31.29
2022-08-19T11:50:12.447Z,31.06
2022-08-19T11:51:15.044Z,30.72
2022-08-19T11:52:12.060Z,30.39
2022-08-19T11:53:12.073Z,29.95
2022-08-19T11:54:12.182Z,29.52
2022-08-19T11:55:12.093Z,29.42
2022-08-19T11:56:12.070Z,29.58
2022-08-19T11:57:12.076Z,30.04
2022-08-19T11:58:18.645Z,30.26
2022-08-19T11:59:14.763Z,30.2
2022-08-19T12:00:12.381Z,30.01
2022-08-19T12:01:12.385Z,30.2
2022-08-19T12:02:15.081Z,30.64
2022-08-19T12:03:12.039Z,30.84
2022-08-19T12:04:12.231Z,30.84
2022-08-19T12:05:13.233Z,30.82
2022-08-19T12:06:12.128Z,30.78
2022-08-19T12:07:12.074Z,30.77
2022-08-19T12:08:15.023Z,30.59
2022-08-19T12:09:12.170Z,30.38
2022-08-19T12:10:12.390Z,30.19
2022-08-19T12:11:12.092Z,30.14
2022-08-19T12:12:12.174Z,30.15
2022-08-19T12:13:12.165Z,30.1
2022-08-19T12:14:14.699Z,30.11
2022-08-19T12:15:12.520Z,30.09
2022-08-19T12:16:12.378Z,30.03
2022-08-19T12:17:12.109Z,30.05
2022-08-19T12:18:12.163Z,29.92
2022-08-19T12:19:15.073Z,30.07
2022-08-19T12:20:12.371Z,30.55
2022-08-19T12:21:12.149Z,30.91
2022-08-19T12:22:12.109Z,31.05
2022-08-19T12:23:12.157Z,31.14
2022-08-19T12:24:12.065Z,31.35
2022-08-19T12:25:12.545Z,31.67
2022-08-19T12:26:12.017Z,32
2022-08-19T12:27:12.832Z,32.21
2022-08-19T12:28:12.145Z,32.37
2022-08-19T12:29:12.110Z,32.67
2022-08-19T12:30:18.029Z,32.43
2022-08-19T12:31:12.373Z,32.19
2022-08-19T12:32:12.444Z,32.29
2022-08-19T12:33:12.020Z,32.5
2022-08-19T12:34:11.966Z,32.41
2022-08-19T12:35:12.466Z,32.18
2022-08-19T12:36:12.104Z,31.92
2022-08-19T12:37:12.169Z,31.45
2022-08-19T12:38:12.069Z,30.94
2022-08-19T12:39:11.988Z,30.63
2022-08-19T12:40:12.494Z,30.56
2022-08-19T12:41:15.124Z,30.56
2022-08-19T12:42:12.157Z,30.64
2022-08-19T12:43:12.089Z,30.43
2022-08-19T12:44:12.116Z,30.25
2022-08-19T12:45:12.373Z,30.33
2022-08-19T12:46:12.380Z,30.38
2022-08-19T12:47:12.024Z,30.19
2022-08-19T12:48:32.857Z,30.04
2022-08-19T12:49:21.913Z,29.99
2022-08-19T12:50:12.383Z,30.2
2022-08-19T12:51:12.131Z,30.19
2022-08-19T12:52:14.960Z,30.13
2022-08-19T12:53:12.178Z,30.02
2022-08-19T12:54:12.076Z,29.88
2022-08-19T12:55:12.373Z,29.81
2022-08-19T12:56:12.292Z,29.77
2022-08-19T12:57:12.082Z,29.82
2022-08-19T12:58:12.084Z,30.01
2022-08-19T12:59:12.067Z,30.12
2022-08-19T13:00:12.520Z,30.64
2022-08-19T13:01:12.461Z,31.19